Terminal Aerodrome Forecast
Issued by NWS

Home | Current Version | Previous Version | Text Only | Print | Product List | Glossary Off
Versions: 1 2 3 4 5 6 7 8 9 10 11 12 13 14 15 16 17 18 19 20 21 22 23 24 25

000
FTUS43 KBIS 220800 AAA
TAFDIK
TAF AMD
KDIK 220809Z 2208/2306 02011KT 6SM -RA BR OVC007
     FM221200 03007KT 3SM -RA BR SCT005 OVC015
     FM221600 05008KT 4SM BR VCTS OVC030CB=

USA.gov is the U.S. government's official web portal to all federal, state and local government web resources and services.